Terminal Aerodrome Forecast
Issued by NWS

Home | Current Version | Previous Version | Graphics & Text | Print | Product List | Glossary On
Versions: 1 2 3 4 5 6 7 8 9 10 11 12 13 14 15 16 17 18 19 20 21 22 23 24 25 26 27 28 29 30 31 32 33 34 35 36 37 38
000
FTUS43 KGRB 161116 AAA
TAFRHI
TAF AMD
KRHI 161116Z 1611/1706 31010G18KT P6SM SCT015 OVC025
     FM161200 35008KT P6SM -SN FEW009 BKN015
     FM161800 02004KT P6SM SCT020 BKN150
     FM170100 13006KT P6SM SCT060 BKN090=

USA.gov is the U.S. government's official web portal to all federal, state and local government web resources and services.